createdAt,value
2022-11-13T00:01:59.155Z,17.53
2022-11-13T00:04:27.940Z,17.37
2022-11-13T00:06:59.384Z,19.50
2022-11-13T00:09:28.435Z,19.33
2022-11-13T00:11:57.392Z,19.90
2022-11-13T00:14:26.330Z,20.00
2022-11-13T00:16:55.150Z,21.60
2022-11-13T00:19:25.306Z,23.07
2022-11-13T00:21:54.885Z,24.43
2022-11-13T00:24:23.579Z,23.57
2022-11-13T00:26:52.276Z,25.60
2022-11-13T00:29:21.047Z,24.60
2022-11-13T00:31:49.780Z,29.90
2022-11-13T00:34:47.227Z,32.10
2022-11-13T00:37:08.577Z,29.87
2022-11-13T00:39:37.390Z,30.90
2022-11-13T00:42:06.301Z,28.50
2022-11-13T00:44:34.981Z,32.10
2022-11-13T00:47:03.788Z,37.70
2022-11-13T00:49:32.443Z,31.07
2022-11-13T00:52:03.014Z,29.67
2022-11-13T00:54:33.106Z,32.00
2022-11-13T00:57:01.772Z,35.87
2022-11-13T00:59:30.517Z,31.53
2022-11-13T01:01:59.239Z,32.10
2022-11-13T01:04:29.521Z,31.97
2022-11-13T01:06:58.280Z,26.10
2022-11-13T01:09:27.356Z,24.20
2022-11-13T01:11:57.792Z,26.63
2022-11-13T01:14:26.527Z,25.37
2022-11-13T01:16:55.336Z,28.17
2022-11-13T01:19:24.069Z,23.70
2022-11-13T01:21:52.755Z,24.77
2022-11-13T01:24:21.475Z,23.23
2022-11-13T01:26:50.321Z,22.37
2022-11-13T01:29:20.417Z,21.27
2022-11-13T01:31:49.142Z,25.63
2022-11-13T01:34:18.110Z,23.73
2022-11-13T01:36:47.175Z,24.40
2022-11-13T01:39:15.932Z,24.47
2022-11-13T01:41:44.652Z,24.10
2022-11-13T01:44:16.370Z,21.83
2022-11-13T01:46:48.468Z,27.70
2022-11-13T01:49:31.362Z,26.03
2022-11-13T01:52:04.321Z,22.17
2022-11-13T01:54:36.277Z,20.57
2022-11-13T01:57:07.069Z,20.00
2022-11-13T01:59:40.698Z,22.00
2022-11-13T02:02:11.631Z,19.93
2022-11-13T02:04:40.769Z,20.87
2022-11-13T02:07:11.297Z,22.97
2022-11-13T02:09:42.025Z,22.07
2022-11-13T02:12:14.248Z,21.30
2022-11-13T02:14:45.838Z,24.57
2022-11-13T02:17:19.379Z,23.17
2022-11-13T02:19:52.857Z,24.07
2022-11-13T02:22:27.267Z,21.83
2022-11-13T02:24:59.614Z,23.43
2022-11-13T02:27:33.072Z,19.50
2022-11-13T02:30:16.182Z,22.40
2022-11-13T02:32:46.509Z,30.43
2022-11-13T02:35:18.138Z,20.43
2022-11-13T02:37:46.944Z,19.33
2022-11-13T02:40:18.191Z,18.60
2022-11-13T02:42:47.503Z,19.50
2022-11-13T02:45:17.505Z,18.10
2022-11-13T02:47:46.727Z,17.40
2022-11-13T02:50:16.137Z,18.60
2022-11-13T02:52:48.449Z,24.03
2022-11-13T02:55:21.014Z,17.00
2022-11-13T02:57:49.937Z,16.40
2022-11-13T03:00:19.825Z,14.80
2022-11-13T03:02:48.868Z,18.00
2022-11-13T03:05:17.928Z,15.17
2022-11-13T03:07:46.673Z,16.60
2022-11-13T03:10:17.697Z,15.70
2022-11-13T03:12:46.586Z,15.50
2022-11-13T03:15:15.990Z,16.40
2022-11-13T03:17:44.704Z,15.87
2022-11-13T03:20:13.374Z,17.30
2022-11-13T03:22:42.081Z,21.60
2022-11-13T03:25:11.301Z,16.77
2022-11-13T03:27:41.490Z,18.70
2022-11-13T03:30:11.349Z,16.97
2022-11-13T03:32:40.038Z,14.93
2022-11-13T03:35:10.015Z,15.13
2022-11-13T03:37:38.937Z,17.40
2022-11-13T03:40:09.029Z,14.87
2022-11-13T03:42:37.769Z,16.63
2022-11-13T03:45:08.377Z,16.03
2022-11-13T03:47:37.081Z,17.60
2022-11-13T03:50:06.395Z,16.07
2022-11-13T03:52:35.109Z,22.37
2022-11-13T03:55:03.848Z,17.93
2022-11-13T03:57:32.534Z,18.97
2022-11-13T04:00:01.212Z,16.17
2022-11-13T04:02:31.271Z,20.83
2022-11-13T04:04:59.942Z,19.53
2022-11-13T04:07:28.614Z,16.90
2022-11-13T04:09:57.269Z,20.47
2022-11-13T04:12:25.883Z,18.27
2022-11-13T04:14:54.560Z,23.33
2022-11-13T04:17:23.222Z,17.40
2022-11-13T04:19:53.409Z,18.17
2022-11-13T04:22:22.044Z,19.17
2022-11-13T04:24:51.138Z,18.47
2022-11-13T04:27:19.848Z,18.60
2022-11-13T04:29:48.502Z,17.80
2022-11-13T04:32:17.324Z,18.10
2022-11-13T04:34:46.620Z,19.07
2022-11-13T04:37:17.051Z,17.60
2022-11-13T04:39:45.843Z,18.57
2022-11-13T04:42:32.099Z,16.50
2022-11-13T04:45:00.902Z,17.83
2022-11-13T04:47:30.081Z,18.90
2022-11-13T04:50:01.039Z,17.30
2022-11-13T04:52:32.405Z,18.83
2022-11-13T04:55:01.620Z,18.03
2022-11-13T04:57:31.571Z,15.73
2022-11-13T05:00:01.193Z,17.30
2022-11-13T05:02:30.330Z,16.83
2022-11-13T05:05:04.615Z,17.10
2022-11-13T05:07:36.482Z,17.77
2022-11-13T05:10:06.193Z,16.73
2022-11-13T05:12:35.355Z,16.17
2022-11-13T05:15:05.115Z,15.90
2022-11-13T05:17:34.875Z,16.60
2022-11-13T05:20:03.844Z,16.13
2022-11-13T05:22:34.507Z,14.30
2022-11-13T05:25:04.089Z,12.73
2022-11-13T05:27:33.064Z,12.47
2022-11-13T05:30:02.296Z,13.70
2022-11-13T05:32:31.855Z,14.90
2022-11-13T05:35:00.903Z,14.00
2022-11-13T05:37:31.543Z,15.60
2022-11-13T05:40:01.997Z,16.70
2022-11-13T05:42:30.913Z,16.10
2022-11-13T05:44:59.672Z,12.37
2022-11-13T05:47:28.607Z,12.53
2022-11-13T05:49:57.401Z,13.73
2022-11-13T05:52:26.290Z,15.17
2022-11-13T05:54:55.238Z,13.00
2022-11-13T05:57:25.791Z,14.43
2022-11-13T05:59:54.790Z,12.73
2022-11-13T06:02:23.643Z,14.40
2022-11-13T06:04:56.425Z,12.83
2022-11-13T06:07:25.764Z,11.00
2022-11-13T06:09:54.623Z,13.63
2022-11-13T06:12:24.877Z,12.00
2022-11-13T06:14:53.782Z,11.63
2022-11-13T06:17:23.280Z,14.50
2022-11-13T06:19:53.691Z,11.03
2022-11-13T06:22:23.060Z,11.43
2022-11-13T06:24:55.506Z,11.83
2022-11-13T06:27:29.988Z,11.43
2022-11-13T06:29:59.650Z,11.67
2022-11-13T06:32:29.246Z,12.10
2022-11-13T06:34:59.095Z,15.10
2022-11-13T06:37:33.685Z,12.87
2022-11-13T06:40:10.645Z,15.07
2022-11-13T06:43:25.500Z,11.70
2022-11-13T06:46:09.016Z,12.63
2022-11-13T06:48:40.644Z,12.33
2022-11-13T06:51:17.894Z,13.83
2022-11-13T06:53:48.711Z,12.83
2022-11-13T06:56:19.011Z,10.93
2022-11-13T06:58:49.494Z,11.20
2022-11-13T07:01:20.339Z,13.30
2022-11-13T07:03:51.871Z,13.10
2022-11-13T07:06:23.339Z,13.03
2022-11-13T07:08:57.156Z,13.10
2022-11-13T07:11:27.475Z,12.53
2022-11-13T07:14:01.231Z,13.83
2022-11-13T07:16:44.051Z,12.60
2022-11-13T07:19:23.495Z,13.93
2022-11-13T07:21:57.354Z,15.90
2022-11-13T07:24:30.307Z,16.57
2022-11-13T07:26:59.870Z,16.80
2022-11-13T07:29:31.075Z,18.40
2022-11-13T07:32:08.447Z,17.43
2022-11-13T07:34:41.040Z,14.67
2022-11-13T07:40:05.290Z,19.40
2022-11-13T07:42:44.049Z,14.63
2022-11-13T07:45:30.600Z,14.17
2022-11-13T07:48:12.104Z,17.20
2022-11-13T07:50:49.376Z,18.43
2022-11-13T07:53:26.217Z,15.00
2022-11-13T07:56:02.360Z,12.83
2022-11-13T07:58:48.254Z,13.53
2022-11-13T08:01:20.965Z,12.77
2022-11-13T08:03:54.856Z,11.47
2022-11-13T08:06:28.196Z,13.37
2022-11-13T08:08:57.439Z,11.37
2022-11-13T08:11:26.408Z,11.73
2022-11-13T08:13:55.418Z,13.87
2022-11-13T08:16:28.334Z,10.53
2022-11-13T08:18:57.201Z,11.83
2022-11-13T08:21:45.241Z,10.50
2022-11-13T08:24:26.193Z,11.63
2022-11-13T08:27:09.025Z,10.33
2022-11-13T08:29:50.740Z,10.90
2022-11-13T08:32:31.823Z,8.63
2022-11-13T08:35:04.219Z,9.17
2022-11-13T08:38:01.690Z,12.30
2022-11-13T08:40:43.228Z,11.70
2022-11-13T08:46:59.278Z,10.97
2022-11-13T08:49:54.156Z,9.73
2022-11-13T08:53:19.209Z,10.73
2022-11-13T08:56:23.255Z,9.97
2022-11-13T08:59:35.855Z,10.60
2022-11-13T09:05:28.492Z,10.70
2022-11-13T09:08:07.480Z,8.40
2022-11-13T09:11:00.570Z,10.93
2022-11-13T09:14:05.962Z,9.17
2022-11-13T09:19:41.296Z,9.80
2022-11-13T09:22:33.585Z,8.87
2022-11-13T09:25:15.302Z,9.50
2022-11-13T09:28:05.344Z,13.17
2022-11-13T09:31:02.776Z,9.63
2022-11-13T09:33:53.519Z,9.77
2022-11-13T09:36:58.232Z,9.77
2022-11-13T09:39:46.164Z,9.80
2022-11-13T09:42:22.272Z,8.23
2022-11-13T09:45:02.735Z,16.67
2022-11-13T09:47:57.591Z,14.80
2022-11-13T09:50:42.455Z,17.33
2022-11-13T09:53:29.905Z,11.33
2022-11-13T09:56:37.228Z,15.23
2022-11-13T09:59:19.569Z,14.90
2022-11-13T10:02:38.069Z,7.23
2022-11-13T10:05:29.306Z,14.60
2022-11-13T10:08:20.457Z,12.07
2022-11-13T10:11:00.677Z,11.00
2022-11-13T10:13:43.312Z,11.43
2022-11-13T10:16:32.689Z,11.50
2022-11-13T10:19:31.237Z,8.60
2022-11-13T10:22:31.660Z,11.77
2022-11-13T10:25:11.181Z,12.30
2022-11-13T10:28:49.527Z,12.03
2022-11-13T10:31:16.610Z,10.57
2022-11-13T10:33:49.163Z,11.47
2022-11-13T10:36:27.455Z,9.93
2022-11-13T10:39:07.022Z,10.07
2022-11-13T10:41:48.289Z,10.47
2022-11-13T10:44:25.940Z,9.30
2022-11-13T10:47:36.029Z,20.37
2022-11-13T10:50:20.342Z,10.83
2022-11-13T10:52:52.142Z,9.17
2022-11-13T10:55:28.803Z,10.00
2022-11-13T10:57:59.281Z,9.43
2022-11-13T11:00:32.971Z,10.37
2022-11-13T11:03:03.562Z,8.23
2022-11-13T11:05:32.983Z,9.57
2022-11-13T11:08:03.026Z,11.10
2022-11-13T11:10:35.557Z,12.50
2022-11-13T11:13:11.925Z,9.97
2022-11-13T11:15:47.359Z,10.37
2022-11-13T11:18:26.354Z,9.50
2022-11-13T11:20:59.435Z,9.60
2022-11-13T11:23:42.740Z,10.17
2022-11-13T11:26:16.252Z,9.23
2022-11-13T11:28:49.528Z,9.23
2022-11-13T11:31:26.836Z,9.33
2022-11-13T11:34:02.043Z,10.80
2022-11-13T11:36:34.451Z,8.33
2022-11-13T11:39:16.969Z,9.30
2022-11-13T11:41:51.513Z,9.77
2022-11-13T11:44:27.854Z,8.53
2022-11-13T11:46:56.676Z,7.93
2022-11-13T11:49:29.001Z,7.63
2022-11-13T11:52:09.921Z,8.43
2022-11-13T11:54:44.524Z,9.27
2022-11-13T11:57:55.857Z,9.07
2022-11-13T12:00:26.821Z,7.80
2022-11-13T12:03:30.693Z,7.90
2022-11-13T12:06:24.766Z,8.90
2022-11-13T12:09:29.934Z,9.00
2022-11-13T12:12:15.277Z,9.43
2022-11-13T12:15:12.077Z,9.73
2022-11-13T12:18:09.557Z,9.47
2022-11-13T12:20:50.181Z,8.87
2022-11-13T12:23:35.619Z,7.93
2022-11-13T12:26:27.930Z,7.90
2022-11-13T12:29:17.446Z,8.70
2022-11-13T12:32:32.640Z,7.93
2022-11-13T12:35:06.020Z,8.47
2022-11-13T12:40:44.192Z,8.17
2022-11-13T12:43:47.047Z,8.90
2022-11-13T12:46:50.142Z,9.30
2022-11-13T12:49:46.951Z,9.10
2022-11-13T12:52:24.665Z,8.77
2022-11-13T12:55:20.636Z,8.40
2022-11-13T12:57:51.231Z,8.97
2022-11-13T13:00:29.570Z,8.40
2022-11-13T13:03:18.091Z,8.13
2022-11-13T13:06:12.883Z,10.37
2022-11-13T13:09:14.153Z,10.53
2022-11-13T13:11:52.249Z,10.73
2022-11-13T13:14:41.905Z,9.10
2022-11-13T13:17:22.948Z,10.10
2022-11-13T13:20:00.617Z,8.83
2022-11-13T13:22:33.890Z,10.07
2022-11-13T13:25:11.908Z,10.27
2022-11-13T13:27:43.544Z,11.90
2022-11-13T13:30:22.242Z,17.53
2022-11-13T13:33:02.223Z,14.80
2022-11-13T13:35:38.774Z,12.50
2022-11-13T13:38:17.095Z,16.57
2022-11-13T13:41:00.677Z,10.23
2022-11-13T13:43:41.409Z,10.03
2022-11-13T13:46:16.674Z,9.97
2022-11-13T13:48:48.108Z,10.80
2022-11-13T13:51:24.939Z,9.57
2022-11-13T13:53:54.730Z,10.53
2022-11-13T13:56:24.684Z,11.07
2022-11-13T13:58:55.269Z,10.43
2022-11-13T14:01:33.994Z,10.63
2022-11-13T14:04:08.472Z,12.50
2022-11-13T14:09:23.934Z,10.83
2022-11-13T14:12:00.698Z,12.17
2022-11-13T14:14:30.908Z,11.40
2022-11-13T14:17:01.769Z,12.73
2022-11-13T14:19:30.540Z,13.07
2022-11-13T14:22:02.921Z,9.73
2022-11-13T14:24:35.912Z,9.57
2022-11-13T14:27:07.847Z,12.37
2022-11-13T14:29:38.827Z,12.47
2022-11-13T14:32:13.953Z,15.73
2022-11-13T14:34:45.766Z,12.47
2022-11-13T14:37:23.584Z,11.20
2022-11-13T14:39:54.233Z,10.03
2022-11-13T14:42:27.592Z,10.80
2022-11-13T14:45:06.967Z,12.60
2022-11-13T14:47:37.732Z,8.43
2022-11-13T14:53:26.782Z,15.60
2022-11-13T14:55:58.633Z,15.53
2022-11-13T14:58:32.282Z,17.33
2022-11-13T15:01:12.767Z,19.10
2022-11-13T15:03:41.614Z,15.97
2022-11-13T15:06:14.052Z,20.60
2022-11-13T15:08:43.115Z,19.57
2022-11-13T15:11:15.796Z,13.40
2022-11-13T15:13:45.056Z,78.33
2022-11-13T15:16:17.990Z,24.73
2022-11-13T15:18:49.960Z,16.50
2022-11-13T15:21:19.110Z,17.30
2022-11-13T15:23:47.859Z,18.60
2022-11-13T15:26:18.134Z,17.27
2022-11-13T15:28:46.980Z,19.50
2022-11-13T15:31:21.300Z,22.70
2022-11-13T15:33:50.181Z,17.07
2022-11-13T15:36:18.927Z,45.47
2022-11-13T15:38:47.828Z,35.80
2022-11-13T15:41:20.891Z,33.13
2022-11-13T15:43:51.131Z,21.37
2022-11-13T15:46:21.056Z,17.83
2022-11-13T15:48:50.613Z,34.83
2022-11-13T15:51:22.387Z,20.80
2022-11-13T15:53:55.053Z,26.60
2022-11-13T15:56:26.068Z,30.47
2022-11-13T15:58:54.794Z,22.87
2022-11-13T16:01:32.219Z,21.23
2022-11-13T16:04:02.547Z,19.90
2022-11-13T16:06:31.542Z,19.60
2022-11-13T16:09:00.326Z,22.30
2022-11-13T16:11:33.028Z,19.50
2022-11-13T16:14:02.329Z,20.83
2022-11-13T16:16:34.947Z,23.40
2022-11-13T16:19:04.267Z,18.57
2022-11-13T16:21:35.389Z,25.00
2022-11-13T16:24:04.283Z,23.97
2022-11-13T16:26:34.765Z,23.20
2022-11-13T16:29:18.976Z,25.23
2022-11-13T16:31:47.960Z,21.37
2022-11-13T16:34:16.659Z,26.40
2022-11-13T16:36:45.715Z,19.77
2022-11-13T16:39:17.560Z,24.27
2022-11-13T16:41:47.643Z,26.37
2022-11-13T16:44:16.403Z,29.33
2022-11-13T16:46:49.637Z,24.60
2022-11-13T16:49:19.484Z,25.33
2022-11-13T16:51:52.908Z,26.87
2022-11-13T16:54:21.564Z,27.37
2022-11-13T16:56:51.737Z,28.80
2022-11-13T16:59:20.459Z,23.37
2022-11-13T17:01:49.110Z,26.77
2022-11-13T17:04:17.825Z,26.40
2022-11-13T17:06:47.160Z,20.43
2022-11-13T17:09:16.244Z,23.63
2022-11-13T17:11:45.202Z,26.00
2022-11-13T17:14:15.690Z,19.67
2022-11-13T17:16:44.311Z,27.73
2022-11-13T17:19:14.971Z,23.40
2022-11-13T17:21:44.520Z,23.80
2022-11-13T17:24:13.388Z,25.37
2022-11-13T17:26:42.017Z,26.93
2022-11-13T17:29:10.654Z,25.77
2022-11-13T17:31:40.689Z,26.10
2022-11-13T17:34:09.405Z,23.90
2022-11-13T17:36:38.141Z,26.40
2022-11-13T17:39:06.733Z,28.20
2022-11-13T17:41:37.183Z,27.47
2022-11-13T17:44:06.198Z,28.30
2022-11-13T17:46:34.874Z,29.53
2022-11-13T17:49:05.061Z,29.27
2022-11-13T17:51:33.657Z,28.37
2022-11-13T17:54:02.399Z,29.97
2022-11-13T17:56:31.148Z,30.03
2022-11-13T17:58:59.891Z,30.30
2022-11-13T18:01:31.457Z,29.30
2022-11-13T18:04:00.483Z,31.23
2022-11-13T18:06:30.673Z,29.33
2022-11-13T18:08:59.343Z,33.10
2022-11-13T18:11:31.330Z,29.57
2022-11-13T18:14:00.022Z,33.90
2022-11-13T18:16:31.506Z,28.97
2022-11-13T18:19:01.292Z,35.50
2022-11-13T18:21:33.575Z,30.90
2022-11-13T18:24:04.879Z,33.03
2022-11-13T18:26:34.626Z,32.27
2022-11-13T18:29:03.677Z,33.20
2022-11-13T18:31:32.568Z,30.90
2022-11-13T18:34:02.514Z,34.40
2022-11-13T18:36:34.789Z,30.50
2022-11-13T18:39:04.053Z,32.87
2022-11-13T18:41:33.739Z,32.57
2022-11-13T18:44:02.813Z,32.50
2022-11-13T18:46:31.858Z,33.20
2022-11-13T18:49:00.633Z,30.17
2022-11-13T18:51:35.476Z,34.80
2022-11-13T18:54:09.675Z,35.13
2022-11-13T18:56:39.998Z,32.97
2022-11-13T18:59:09.015Z,32.07
2022-11-13T19:01:39.862Z,33.33
2022-11-13T19:04:25.672Z,35.20
2022-11-13T19:06:56.173Z,32.40
2022-11-13T19:09:24.906Z,30.87
2022-11-13T19:11:55.053Z,27.60
2022-11-13T19:14:23.788Z,26.37
2022-11-13T19:16:52.516Z,29.97
2022-11-13T19:19:23.382Z,29.60
2022-11-13T19:21:56.426Z,22.03
2022-11-13T19:24:26.456Z,23.73
2022-11-13T19:26:55.144Z,31.00
2022-11-13T19:29:23.813Z,30.60
2022-11-13T19:31:53.701Z,25.83
2022-11-13T19:34:22.417Z,30.73
2022-11-13T19:36:51.519Z,30.37
2022-11-13T19:39:20.603Z,26.77
2022-11-13T19:41:50.861Z,32.90
2022-11-13T19:44:19.508Z,30.40
2022-11-13T19:46:49.804Z,31.70
2022-11-13T19:49:18.608Z,30.87
2022-11-13T19:51:47.340Z,31.40
2022-11-13T19:54:17.119Z,29.03
2022-11-13T19:56:45.770Z,28.23
2022-11-13T19:59:16.177Z,29.20
2022-11-13T20:01:44.852Z,29.93
2022-11-13T20:04:14.615Z,23.30
2022-11-13T20:06:43.399Z,25.83
2022-11-13T20:09:12.182Z,18.40
2022-11-13T20:11:41.674Z,23.87
2022-11-13T20:14:12.875Z,29.50
2022-11-13T20:16:43.043Z,29.00
2022-11-13T20:19:11.814Z,27.20
2022-11-13T20:21:40.906Z,26.13
2022-11-13T20:24:11.824Z,31.07
2022-11-13T20:26:40.732Z,31.73
2022-11-13T20:29:09.532Z,29.37
2022-11-13T20:31:38.389Z,31.97
2022-11-13T20:34:08.682Z,30.57
2022-11-13T20:36:37.454Z,28.83
2022-11-13T20:39:09.361Z,31.37
2022-11-13T20:41:38.504Z,32.07
2022-11-13T20:44:07.632Z,27.47
2022-11-13T20:46:36.526Z,26.53
2022-11-13T20:49:05.781Z,14.43
2022-11-13T20:51:36.025Z,25.63
2022-11-13T20:54:05.007Z,25.00
2022-11-13T20:56:33.739Z,29.83
2022-11-13T20:59:04.087Z,26.30
2022-11-13T21:01:34.398Z,25.60
2022-11-13T21:04:03.337Z,29.90
2022-11-13T21:06:32.081Z,29.60
2022-11-13T21:09:03.592Z,27.10
2022-11-13T21:11:33.015Z,28.30
2022-11-13T21:14:01.758Z,27.07
2022-11-13T21:16:30.610Z,29.00
2022-11-13T21:19:00.791Z,17.77
2022-11-13T21:21:29.561Z,30.73
2022-11-13T21:23:59.481Z,28.03
2022-11-13T21:26:30.023Z,28.40
2022-11-13T21:29:00.254Z,25.90
2022-11-13T21:31:29.235Z,27.60
2022-11-13T21:33:59.374Z,27.90
2022-11-13T21:36:29.530Z,29.30
2022-11-13T21:38:58.569Z,24.50
2022-11-13T21:41:29.012Z,24.70
2022-11-13T21:43:59.636Z,20.67
2022-11-13T21:46:30.888Z,25.80
2022-11-13T21:49:02.400Z,25.23
2022-11-13T21:51:32.054Z,25.10
2022-11-13T21:54:01.287Z,26.23
2022-11-13T21:56:33.329Z,24.83
2022-11-13T21:59:02.308Z,22.70
2022-11-13T22:01:37.841Z,24.43
2022-11-13T22:04:07.615Z,25.03
2022-11-13T22:06:37.228Z,23.90
2022-11-13T22:09:08.385Z,25.13
2022-11-13T22:11:38.928Z,27.03
2022-11-13T22:14:08.001Z,25.80
2022-11-13T22:16:38.449Z,24.17
2022-11-13T22:19:10.854Z,24.17
2022-11-13T22:21:39.882Z,25.90
2022-11-13T22:24:09.591Z,24.83
2022-11-13T22:26:41.290Z,24.27
2022-11-13T22:29:10.121Z,21.90
2022-11-13T22:31:39.327Z,21.90
2022-11-13T22:34:08.205Z,24.00
2022-11-13T22:36:39.086Z,21.53
2022-11-13T22:39:14.702Z,22.90
2022-11-13T22:41:47.283Z,22.87
2022-11-13T22:44:28.572Z,21.03
2022-11-13T22:47:09.057Z,20.83
2022-11-13T22:49:38.810Z,21.97
2022-11-13T22:52:09.230Z,21.13
2022-11-13T22:54:41.071Z,22.77
2022-11-13T22:57:13.969Z,21.90
2022-11-13T22:59:44.485Z,22.00
2022-11-13T23:02:14.763Z,20.93
2022-11-13T23:04:44.810Z,22.10
2022-11-13T23:07:18.947Z,21.53
2022-11-13T23:09:54.195Z,19.33
2022-11-13T23:12:30.930Z,20.77
2022-11-13T23:15:05.346Z,21.00
2022-11-13T23:17:35.889Z,21.40
2022-11-13T23:20:21.348Z,19.87
2022-11-13T23:22:52.380Z,22.23
2022-11-13T23:28:12.511Z,21.40
2022-11-13T23:30:43.860Z,20.73
2022-11-13T23:33:14.502Z,20.60
2022-11-13T23:35:59.540Z,19.87
2022-11-13T23:38:29.698Z,20.47
2022-11-13T23:41:02.750Z,18.77
2022-11-13T23:46:30.391Z,20.30
2022-11-13T23:49:01.818Z,18.77
2022-11-13T23:51:33.182Z,18.87
2022-11-13T23:54:12.553Z,18.93
2022-11-13T23:56:42.814Z,18.10
2022-11-13T23:59:16.881Z,17.77
